createdAt,value
2019-02-22T00:00:41.064Z,10.50
2019-02-22T00:03:07.096Z,10.60
2019-02-22T00:05:33.116Z,10.70
2019-02-22T00:07:59.145Z,10.70
2019-02-22T00:10:25.174Z,10.60
2019-02-22T00:12:51.192Z,10.60
2019-02-22T00:15:17.213Z,10.60
2019-02-22T00:17:43.252Z,10.60
2019-02-22T00:20:09.271Z,10.60
2019-02-22T00:22:35.379Z,10.60
2019-02-22T00:25:01.387Z,10.60
2019-02-22T00:27:27.651Z,10.60
2019-02-22T00:29:53.663Z,10.70
2019-02-22T00:32:19.695Z,10.70
2019-02-22T00:34:45.753Z,10.70
2019-02-22T00:37:11.916Z,10.70
2019-02-22T00:42:22.483Z,10.60
2019-02-22T00:44:48.499Z,10.50
2019-02-22T00:47:14.531Z,10.40
2019-02-22T00:49:40.543Z,10.40
2019-02-22T00:52:06.575Z,10.40
2019-02-22T00:54:32.603Z,10.40
2019-02-22T00:56:58.627Z,10.30
2019-02-22T00:59:24.651Z,10.20
2019-02-22T01:01:50.668Z,10.10
2019-02-22T01:04:16.709Z,10.00
2019-02-22T01:06:42.720Z,9.90
2019-02-22T01:09:08.760Z,9.80
2019-02-22T01:11:34.847Z,9.70
2019-02-22T01:14:01.823Z,9.60
2019-02-22T01:16:27.842Z,9.50
2019-02-22T01:18:53.876Z,9.40
2019-02-22T01:21:19.910Z,9.30
2019-02-22T01:23:45.940Z,9.20
2019-02-22T01:26:11.987Z,9.20
2019-02-22T01:28:38.017Z,9.10
2019-02-22T01:31:04.031Z,9.00
2019-02-22T01:33:30.064Z,8.90
2019-02-22T01:35:56.117Z,8.80
2019-02-22T01:38:22.353Z,8.80
2019-02-22T01:40:48.364Z,8.70
2019-02-22T01:43:14.416Z,8.70
2019-02-22T01:45:40.424Z,8.60
2019-02-22T01:48:06.457Z,8.60
2019-02-22T01:50:32.468Z,8.50
2019-02-22T01:52:58.498Z,8.50
2019-02-22T01:55:24.519Z,8.40
2019-02-22T01:57:50.540Z,8.50
2019-02-22T02:00:16.655Z,8.70
2019-02-22T02:02:42.679Z,8.80
2019-02-22T02:05:08.707Z,8.90
2019-02-22T02:07:34.719Z,8.90
2019-02-22T02:10:02.366Z,8.90
2019-02-22T02:12:28.379Z,8.90
2019-02-22T02:14:54.484Z,9.00
2019-02-22T02:17:20.566Z,9.10
2019-02-22T02:19:46.757Z,9.10
2019-02-22T02:22:12.768Z,9.20
2019-02-22T02:24:38.799Z,9.30
2019-02-22T02:27:04.823Z,9.40
2019-02-22T02:29:30.851Z,9.50
2019-02-22T02:31:56.869Z,9.60
2019-02-22T02:34:22.899Z,9.60
2019-02-22T02:36:48.919Z,9.60
2019-02-22T02:39:15.035Z,9.50
2019-02-22T02:41:41.077Z,9.50
2019-02-22T02:44:07.109Z,9.50
2019-02-22T02:46:33.149Z,9.50
2019-02-22T02:48:59.184Z,9.50
2019-02-22T02:51:25.195Z,9.60
2019-02-22T02:53:51.260Z,9.60
2019-02-22T02:56:17.267Z,9.60
2019-02-22T02:58:43.303Z,9.50
2019-02-22T03:01:09.320Z,9.50
2019-02-22T03:03:35.353Z,9.50
2019-02-22T03:06:03.278Z,9.50
2019-02-22T03:08:31.208Z,9.50
2019-02-22T03:10:57.224Z,9.60
2019-02-22T03:13:23.396Z,9.60
2019-02-22T03:15:49.413Z,9.70
2019-02-22T03:18:15.425Z,9.70
2019-02-22T03:20:41.455Z,9.70
2019-02-22T03:23:07.467Z,9.80
2019-02-22T03:25:33.505Z,9.80
2019-02-22T03:27:59.520Z,9.80
2019-02-22T03:30:25.552Z,9.80
2019-02-22T03:32:51.568Z,9.80
2019-02-22T03:35:17.625Z,9.70
2019-02-22T03:37:43.696Z,9.70
2019-02-22T03:40:09.735Z,9.70
2019-02-22T03:42:35.768Z,9.70
2019-02-22T03:45:04.313Z,9.70
2019-02-22T03:47:30.336Z,9.70
2019-02-22T03:49:56.393Z,9.70
2019-02-22T03:52:24.392Z,9.70
2019-02-22T03:54:50.425Z,9.70
2019-02-22T03:57:16.439Z,9.70
2019-02-22T03:59:42.476Z,9.70
2019-02-22T04:02:08.516Z,9.80
2019-02-22T04:04:34.643Z,9.80
2019-02-22T04:07:00.659Z,9.80
2019-02-22T04:09:27.301Z,9.80
2019-02-22T04:11:53.312Z,9.90
2019-02-22T04:14:19.348Z,9.90
2019-02-22T04:16:45.360Z,9.90
2019-02-22T04:19:11.395Z,10.00
2019-02-22T04:21:39.943Z,10.00
2019-02-22T04:24:06.163Z,10.00
2019-02-22T04:26:32.172Z,10.00
2019-02-22T04:28:58.192Z,10.10
2019-02-22T04:31:24.219Z,10.10
2019-02-22T04:33:50.246Z,10.00
2019-02-22T04:36:16.294Z,10.00
2019-02-22T04:38:42.312Z,10.10
2019-02-22T04:41:08.339Z,10.10
2019-02-22T04:43:34.355Z,10.10
2019-02-22T04:46:02.078Z,10.10
2019-02-22T04:48:28.085Z,10.20
2019-02-22T04:50:54.118Z,10.20
2019-02-22T04:53:20.127Z,10.20
2019-02-22T04:55:46.160Z,10.20
2019-02-22T04:58:14.819Z,10.10
2019-02-22T05:00:40.860Z,10.00
2019-02-22T05:03:06.940Z,10.00
2019-02-22T05:05:32.971Z,10.00
2019-02-22T05:07:58.982Z,10.00
2019-02-22T05:10:25.014Z,10.10
2019-02-22T05:12:51.052Z,10.10
2019-02-22T05:15:17.083Z,10.00
2019-02-22T05:17:43.102Z,10.00
2019-02-22T05:20:09.231Z,10.00
2019-02-22T05:22:35.239Z,10.10
2019-02-22T05:25:04.185Z,10.10
2019-02-22T05:27:30.204Z,10.10
2019-02-22T05:29:56.232Z,10.10
2019-02-22T05:32:22.239Z,10.10
2019-02-22T05:34:48.337Z,10.10
2019-02-22T05:37:14.370Z,10.20
2019-02-22T05:39:40.468Z,10.20
2019-02-22T05:42:06.499Z,10.20
2019-02-22T05:44:32.516Z,10.20
2019-02-22T05:47:00.661Z,10.10
2019-02-22T05:49:26.517Z,10.10
2019-02-22T05:51:52.543Z,10.10
2019-02-22T05:54:18.567Z,10.10
2019-02-22T05:56:44.595Z,10.10
2019-02-22T05:59:10.653Z,10.00
2019-02-22T06:01:36.688Z,10.00
2019-02-22T06:04:02.993Z,10.00
2019-02-22T06:06:29.075Z,10.00
2019-02-22T06:08:55.087Z,10.00
2019-02-22T06:11:21.291Z,10.00
2019-02-22T06:13:47.396Z,10.00
2019-02-22T06:16:13.547Z,10.00
2019-02-22T06:18:39.573Z,10.00
2019-02-22T06:21:05.716Z,10.00
2019-02-22T06:23:31.803Z,10.00
2019-02-22T06:25:57.843Z,10.00
2019-02-22T06:28:23.856Z,10.10
2019-02-22T06:30:49.888Z,10.10
2019-02-22T06:33:15.903Z,10.10
2019-02-22T06:35:42.048Z,10.10
2019-02-22T06:38:08.074Z,10.20
2019-02-22T06:40:34.096Z,10.20
2019-02-22T06:43:00.116Z,10.30
2019-02-22T06:45:26.158Z,10.40
2019-02-22T06:47:52.196Z,10.30
2019-02-22T06:50:18.217Z,10.40
2019-02-22T06:52:44.251Z,10.40
2019-02-22T06:55:10.263Z,10.50
2019-02-22T06:57:36.296Z,10.50
2019-02-22T07:00:05.917Z,10.50
2019-02-22T07:02:32.040Z,10.50
2019-02-22T07:04:58.056Z,10.60
2019-02-22T07:07:24.085Z,10.60
2019-02-22T07:09:50.095Z,10.70
2019-02-22T07:12:18.032Z,10.80
2019-02-22T07:15:05.028Z,10.80
2019-02-22T07:17:31.241Z,10.60
2019-02-22T07:19:57.375Z,10.80
2019-02-22T07:22:23.455Z,10.80
2019-02-22T07:24:49.471Z,10.90
2019-02-22T07:27:15.510Z,10.90
2019-02-22T07:29:41.523Z,11.00
2019-02-22T07:32:07.575Z,11.00
2019-02-22T07:34:33.568Z,11.00
2019-02-22T07:36:59.596Z,11.00
2019-02-22T07:39:28.131Z,11.10
2019-02-22T07:41:53.547Z,11.20
2019-02-22T07:44:19.588Z,11.20
2019-02-22T07:46:45.615Z,11.20
2019-02-22T07:49:21.479Z,11.30
2019-02-22T07:51:47.667Z,11.30
2019-02-22T07:54:13.681Z,11.30
2019-02-22T07:56:39.712Z,11.30
2019-02-22T07:59:05.743Z,11.30
2019-02-22T08:01:31.773Z,11.40
2019-02-22T08:03:57.788Z,11.40
2019-02-22T08:06:23.907Z,11.40
2019-02-22T08:08:49.943Z,11.40
2019-02-22T08:11:15.951Z,11.40
2019-02-22T08:13:41.980Z,11.50
2019-02-22T08:16:07.996Z,11.50
2019-02-22T08:18:34.031Z,11.50
2019-02-22T08:21:00.050Z,11.60
2019-02-22T08:23:26.279Z,11.60
2019-02-22T08:25:52.495Z,11.70
2019-02-22T08:28:18.527Z,11.70
2019-02-22T08:30:44.615Z,11.70
2019-02-22T08:33:10.692Z,11.80
2019-02-22T08:35:36.707Z,11.80
2019-02-22T08:38:02.914Z,11.80
2019-02-22T08:40:28.993Z,11.90
2019-02-22T08:42:55.015Z,11.90
2019-02-22T08:45:21.110Z,11.90
2019-02-22T08:47:47.180Z,11.90
2019-02-22T08:50:14.555Z,12.00
2019-02-22T08:52:40.723Z,12.10
2019-02-22T08:55:06.739Z,12.10
2019-02-22T08:57:32.771Z,12.20
2019-02-22T08:59:58.775Z,12.30
2019-02-22T09:02:24.812Z,12.30
2019-02-22T09:04:50.827Z,12.30
2019-02-22T09:07:16.859Z,12.40
2019-02-22T09:09:42.876Z,12.40
2019-02-22T09:12:08.889Z,12.40
2019-02-22T09:14:34.915Z,12.40
2019-02-22T09:17:00.935Z,12.40
2019-02-22T09:19:26.969Z,12.40
2019-02-22T09:21:52.984Z,12.60
2019-02-22T09:24:19.031Z,12.70
2019-02-22T09:26:45.045Z,12.80
2019-02-22T09:29:11.072Z,13.00
2019-02-22T09:31:37.116Z,13.10
2019-02-22T09:34:03.147Z,13.20
2019-02-22T09:36:29.163Z,13.20
2019-02-22T09:38:55.197Z,13.20
2019-02-22T09:41:21.212Z,13.30
2019-02-22T09:43:54.567Z,13.30
2019-02-22T09:46:15.167Z,13.50
2019-02-22T09:48:41.212Z,13.50
2019-02-22T09:51:07.248Z,13.60
2019-02-22T09:53:33.376Z,13.70
2019-02-22T09:55:59.383Z,13.70
2019-02-22T09:58:25.416Z,13.70
2019-02-22T10:00:51.439Z,13.70
2019-02-22T10:03:17.472Z,13.60
2019-02-22T10:05:43.487Z,13.40
2019-02-22T10:08:09.551Z,13.30
2019-02-22T10:10:35.564Z,13.20
2019-02-22T10:13:02.320Z,13.20
2019-02-22T10:15:28.331Z,13.20
2019-02-22T10:17:54.343Z,13.10
2019-02-22T10:20:20.447Z,13.10
2019-02-22T10:22:46.483Z,13.20
2019-02-22T10:25:12.556Z,13.10
2019-02-22T10:27:58.440Z,13.10
2019-02-22T10:30:24.475Z,13.10
2019-02-22T10:32:50.495Z,13.10
2019-02-22T10:35:16.536Z,13.20
2019-02-22T10:37:42.547Z,13.10
2019-02-22T10:40:08.880Z,13.20
2019-02-22T10:42:34.896Z,13.40
2019-02-22T10:45:01.403Z,13.40
2019-02-22T10:47:27.516Z,13.60
2019-02-22T10:49:53.549Z,13.80
2019-02-22T10:52:19.566Z,13.90
2019-02-22T10:54:45.591Z,14.10
2019-02-22T10:57:11.603Z,14.10
2019-02-22T10:59:37.631Z,14.10
2019-02-22T11:02:03.648Z,14.10
2019-02-22T11:04:29.680Z,14.30
2019-02-22T11:06:55.710Z,14.30
2019-02-22T11:09:21.747Z,14.50
2019-02-22T11:11:48.129Z,14.80
2019-02-22T11:14:14.422Z,15.10
2019-02-22T11:16:40.492Z,15.30
2019-02-22T11:19:06.730Z,15.50
2019-02-22T11:21:32.836Z,15.50
2019-02-22T11:23:58.877Z,15.40
2019-02-22T11:26:24.883Z,15.10
2019-02-22T11:28:50.924Z,14.90
2019-02-22T11:31:17.461Z,14.80
2019-02-22T11:33:43.572Z,14.60
2019-02-22T11:36:09.584Z,14.40
2019-02-22T11:38:35.599Z,14.20
2019-02-22T11:41:01.743Z,14.10
2019-02-22T11:43:27.752Z,14.10
2019-02-22T11:45:53.788Z,14.00
2019-02-22T11:48:19.819Z,14.00
2019-02-22T11:50:45.852Z,14.00
2019-02-22T11:53:11.961Z,14.10
2019-02-22T11:55:38.003Z,14.20
2019-02-22T11:58:04.121Z,14.30
2019-02-22T12:00:31.155Z,14.60
2019-02-22T12:02:57.168Z,14.80
2019-02-22T12:05:23.219Z,15.00
2019-02-22T12:07:49.255Z,15.20
2019-02-22T12:10:15.283Z,15.20
2019-02-22T12:12:41.300Z,15.20
2019-02-22T12:15:09.740Z,15.20
2019-02-22T12:17:35.856Z,15.10
2019-02-22T12:20:03.472Z,15.10
2019-02-22T12:22:29.483Z,15.20
2019-02-22T12:24:55.580Z,15.40
2019-02-22T12:27:21.600Z,15.50
2019-02-22T12:29:47.657Z,15.60
2019-02-22T12:32:13.652Z,15.80
2019-02-22T12:34:39.711Z,15.90
2019-02-22T12:37:05.720Z,16.00
2019-02-22T12:39:31.752Z,16.00
2019-02-22T12:41:57.830Z,15.90
2019-02-22T12:44:23.848Z,15.90
2019-02-22T12:46:49.870Z,15.90
2019-02-22T12:49:15.896Z,16.10
2019-02-22T12:51:41.913Z,16.10
2019-02-22T12:54:07.943Z,16.10
2019-02-22T12:59:02.069Z,15.70
2019-02-22T13:01:28.092Z,15.80
2019-02-22T13:03:54.135Z,15.70
2019-02-22T13:06:20.155Z,15.80
2019-02-22T13:08:46.193Z,15.90
2019-02-22T13:11:12.212Z,16.00
2019-02-22T13:13:38.275Z,15.90
2019-02-22T13:16:04.295Z,15.70
2019-02-22T13:18:30.311Z,15.60
2019-02-22T13:20:56.348Z,15.50
2019-02-22T13:23:22.396Z,15.60
2019-02-22T13:25:48.440Z,15.70
2019-02-22T13:28:14.451Z,15.40
2019-02-22T13:30:40.531Z,15.40
2019-02-22T13:33:06.611Z,15.50
2019-02-22T13:35:32.707Z,15.60
2019-02-22T13:37:58.723Z,15.40
2019-02-22T13:40:24.764Z,15.60
2019-02-22T13:42:50.779Z,15.40
2019-02-22T13:45:25.966Z,15.20
2019-02-22T13:47:44.753Z,15.10
2019-02-22T13:50:15.145Z,14.80
2019-02-22T13:52:41.158Z,14.50
2019-02-22T13:55:07.497Z,14.40
2019-02-22T13:57:33.514Z,14.40
2019-02-22T13:59:59.554Z,14.40
2019-02-22T14:02:25.563Z,14.50
2019-02-22T14:04:51.619Z,14.60
2019-02-22T14:07:17.661Z,14.60
2019-02-22T14:09:43.700Z,14.70
2019-02-22T14:12:09.723Z,14.70
2019-02-22T14:14:35.883Z,14.70
2019-02-22T14:17:01.999Z,14.80
2019-02-22T14:19:28.123Z,15.00
2019-02-22T14:21:54.151Z,15.20
2019-02-22T14:24:20.188Z,15.40
2019-02-22T14:26:46.207Z,15.50
2019-02-22T14:29:12.307Z,15.50
2019-02-22T14:31:38.319Z,15.40
2019-02-22T14:34:04.359Z,15.20
2019-02-22T14:36:30.430Z,15.10
2019-02-22T14:38:56.438Z,15.10
2019-02-22T14:41:22.523Z,15.20
2019-02-22T14:43:48.540Z,15.30
2019-02-22T14:46:25.327Z,15.40
2019-02-22T14:48:42.512Z,15.60
2019-02-22T14:51:08.556Z,15.70
2019-02-22T14:53:34.649Z,15.80
2019-02-22T14:56:02.060Z,15.80
2019-02-22T14:58:28.067Z,15.80
2019-02-22T15:00:54.825Z,15.80
2019-02-22T15:03:20.857Z,15.70
2019-02-22T15:05:46.932Z,15.70
2019-02-22T15:08:12.945Z,15.60
2019-02-22T15:10:38.984Z,15.40
2019-02-22T15:13:05.006Z,15.20
2019-02-22T15:15:33.029Z,15.00
2019-02-22T15:18:00.948Z,14.90
2019-02-22T15:20:27.027Z,14.80
2019-02-22T15:22:53.045Z,14.80
2019-02-22T15:25:19.091Z,14.80
2019-02-22T15:27:45.112Z,14.70
2019-02-22T15:30:13.189Z,14.60
2019-02-22T15:32:39.279Z,14.60
2019-02-22T15:35:08.827Z,14.50
2019-02-22T15:37:34.859Z,14.50
2019-02-22T15:40:01.989Z,14.50
2019-02-22T15:42:28.140Z,14.40
2019-02-22T15:44:54.257Z,14.40
2019-02-22T15:47:20.307Z,14.50
2019-02-22T15:49:48.925Z,14.50
2019-02-22T15:52:14.661Z,14.50
2019-02-22T15:54:45.923Z,14.50
2019-02-22T15:57:11.931Z,14.50
2019-02-22T15:59:37.978Z,14.60
2019-02-22T16:02:04.316Z,14.70
2019-02-22T16:04:32.223Z,14.60
2019-02-22T16:06:58.368Z,14.40
2019-02-22T16:09:24.382Z,14.20
2019-02-22T16:11:52.340Z,14.00
2019-02-22T16:14:18.336Z,13.80
2019-02-22T16:16:44.375Z,13.70
2019-02-22T16:19:10.487Z,13.70
2019-02-22T16:21:36.545Z,13.60
2019-02-22T16:24:02.549Z,13.60
2019-02-22T16:26:29.615Z,13.70
2019-02-22T16:28:55.631Z,13.80
2019-02-22T16:31:21.667Z,13.90
2019-02-22T16:33:47.691Z,13.90
2019-02-22T16:36:13.731Z,13.90
2019-02-22T16:38:39.748Z,13.80
2019-02-22T16:41:05.835Z,13.70
2019-02-22T16:43:31.853Z,13.60
2019-02-22T16:45:57.904Z,13.40
2019-02-22T16:48:23.919Z,13.20
2019-02-22T16:50:49.991Z,13.00
2019-02-22T16:53:16.003Z,12.90
2019-02-22T16:55:42.039Z,12.70
2019-02-22T16:58:08.060Z,12.50
2019-02-22T17:00:34.116Z,12.40
2019-02-22T17:03:00.128Z,12.30
2019-02-22T17:05:26.296Z,12.20
2019-02-22T17:07:52.308Z,12.10
2019-02-22T17:10:18.352Z,12.00
2019-02-22T17:12:44.366Z,11.90
2019-02-22T17:15:11.995Z,11.90
2019-02-22T17:17:38.036Z,11.80
2019-02-22T17:20:06.851Z,11.70
2019-02-22T17:22:32.888Z,11.60
2019-02-22T17:24:58.908Z,11.60
2019-02-22T17:27:25.067Z,11.50
2019-02-22T17:29:51.084Z,11.50
2019-02-22T17:32:17.126Z,11.40
2019-02-22T17:34:45.507Z,11.50
2019-02-22T17:39:33.111Z,11.70
2019-02-22T17:41:59.241Z,11.10
2019-02-22T17:44:25.256Z,11.10
2019-02-22T17:46:57.672Z,11.10
2019-02-22T17:49:19.212Z,11.10
2019-02-22T17:51:45.255Z,11.00
2019-02-22T17:54:11.379Z,11.00
2019-02-22T17:56:37.428Z,11.00
2019-02-22T17:59:03.448Z,10.90
2019-02-22T18:01:29.555Z,10.90
2019-02-22T18:03:55.575Z,10.90
2019-02-22T18:06:21.637Z,10.80
2019-02-22T18:08:47.699Z,10.80
2019-02-22T18:11:13.747Z,10.80
2019-02-22T18:13:39.760Z,10.70
2019-02-22T18:16:05.980Z,10.70
2019-02-22T18:18:32.016Z,10.70
2019-02-22T18:20:58.085Z,10.60
2019-02-22T18:23:24.104Z,10.60
2019-02-22T18:25:50.139Z,10.50
2019-02-22T18:28:16.163Z,10.50
2019-02-22T18:30:42.168Z,10.40
2019-02-22T18:33:08.243Z,10.40
2019-02-22T18:35:34.247Z,10.40
2019-02-22T18:38:00.293Z,10.40
2019-02-22T18:40:26.316Z,10.40
2019-02-22T18:42:52.407Z,10.40
2019-02-22T18:45:20.488Z,10.40
2019-02-22T18:47:46.536Z,10.40
2019-02-22T18:50:12.560Z,10.40
2019-02-22T18:52:38.636Z,10.40
2019-02-22T18:58:33.099Z,10.40
2019-02-22T19:00:59.199Z,10.30
2019-02-22T19:03:25.221Z,10.20
2019-02-22T19:05:51.327Z,10.10
2019-02-22T19:08:45.743Z,10.10
2019-02-22T19:11:11.811Z,10.00
2019-02-22T19:13:37.823Z,9.90
2019-02-22T19:16:03.865Z,9.80
2019-02-22T19:18:30.071Z,9.80
2019-02-22T19:20:56.086Z,9.70
2019-02-22T19:23:22.111Z,9.70
2019-02-22T19:25:48.227Z,9.60
2019-02-22T19:30:40.645Z,9.60
2019-02-22T19:33:06.674Z,9.60
2019-02-22T19:35:32.692Z,9.60
2019-02-22T19:37:58.719Z,9.60
2019-02-22T19:40:25.931Z,9.50
2019-02-22T19:42:52.815Z,9.50
2019-02-22T19:45:18.822Z,9.40
2019-02-22T19:47:44.879Z,9.40
2019-02-22T19:50:12.403Z,9.40
2019-02-22T19:52:38.435Z,9.30
2019-02-22T19:55:10.848Z,9.30
2019-02-22T19:57:36.893Z,9.20
2019-02-22T20:00:07.608Z,9.20
2019-02-22T20:02:33.727Z,9.20
2019-02-22T20:04:59.748Z,9.20
2019-02-22T20:07:25.867Z,9.20
2019-02-22T20:09:51.891Z,9.20
2019-02-22T20:12:17.923Z,9.10
2019-02-22T20:14:43.934Z,9.10
2019-02-22T20:17:09.962Z,9.10
2019-02-22T20:19:35.975Z,9.10
2019-02-22T20:22:02.133Z,9.10
2019-02-22T20:24:28.155Z,9.10
2019-02-22T20:26:54.182Z,9.10
2019-02-22T20:29:20.235Z,9.10
2019-02-22T20:31:46.264Z,9.00
2019-02-22T20:34:12.271Z,9.00
2019-02-22T20:36:38.299Z,9.00
2019-02-22T20:39:04.927Z,8.90
2019-02-22T20:41:30.968Z,8.90
2019-02-22T20:46:29.943Z,8.90
2019-02-22T20:49:00.923Z,8.90
2019-02-22T20:51:23.893Z,8.90
2019-02-22T20:53:49.924Z,8.90
2019-02-22T20:56:15.940Z,8.90
2019-02-22T20:58:41.979Z,8.90
2019-02-22T21:01:14.756Z,8.90
2019-02-22T21:03:35.928Z,8.90
2019-02-22T21:06:01.947Z,8.90
2019-02-22T21:08:27.972Z,8.80
2019-02-22T21:10:53.987Z,8.80
2019-02-22T21:13:20.132Z,8.80
2019-02-22T21:15:46.147Z,8.80
2019-02-22T21:18:16.341Z,8.70
2019-02-22T21:20:40.148Z,8.70
2019-02-22T21:23:06.180Z,8.70
2019-02-22T21:25:32.235Z,8.70
2019-02-22T21:27:58.252Z,8.70
2019-02-22T21:30:24.263Z,8.60
2019-02-22T21:32:50.338Z,8.60
2019-02-22T21:35:16.351Z,8.60
2019-02-22T21:37:42.982Z,8.50
2019-02-22T21:40:10.097Z,8.50
2019-02-22T21:42:36.127Z,8.50
2019-02-22T21:45:03.839Z,8.50
2019-02-22T21:47:29.975Z,8.50
2019-02-22T21:49:56.055Z,8.50
2019-02-22T21:52:22.089Z,8.50
2019-02-22T21:54:48.099Z,8.50
2019-02-22T21:57:14.108Z,8.50
2019-02-22T21:59:40.187Z,8.40
2019-02-22T22:02:06.262Z,8.40
2019-02-22T22:04:32.295Z,8.40
2019-02-22T22:06:58.412Z,8.40
2019-02-22T22:09:24.552Z,8.30
2019-02-22T22:11:50.782Z,8.30
2019-02-22T22:14:17.378Z,8.30
2019-02-22T22:16:43.559Z,8.20
2019-02-22T22:19:09.583Z,8.20
2019-02-22T22:21:35.610Z,8.20
2019-02-22T22:24:02.264Z,8.20
2019-02-22T22:26:28.269Z,8.10
2019-02-22T22:28:54.303Z,8.10
2019-02-22T22:31:23.324Z,8.10
2019-02-22T22:33:49.367Z,8.10
2019-02-22T22:36:15.467Z,8.10
2019-02-22T22:38:41.499Z,8.10
2019-02-22T22:41:07.511Z,8.10
2019-02-22T22:43:33.571Z,8.00
2019-02-22T22:45:59.575Z,8.00
2019-02-22T22:48:25.614Z,8.00
2019-02-22T22:50:51.631Z,8.00
2019-02-22T22:53:17.753Z,8.00
2019-02-22T22:55:43.768Z,8.00
2019-02-22T22:58:09.805Z,8.00
2019-02-22T23:00:50.424Z,8.00
2019-02-22T23:03:16.879Z,7.90
2019-02-22T23:05:42.887Z,7.90
2019-02-22T23:08:08.899Z,7.80
2019-02-22T23:10:34.978Z,7.80
2019-02-22T23:13:00.985Z,7.80
2019-02-22T23:15:27.023Z,7.80
2019-02-22T23:17:53.027Z,7.80
2019-02-22T23:20:19.216Z,7.80
2019-02-22T23:22:45.231Z,7.80
2019-02-22T23:25:11.387Z,7.70
2019-02-22T23:27:37.406Z,7.70
2019-02-22T23:30:05.240Z,7.60
2019-02-22T23:32:31.255Z,7.60
2019-02-22T23:34:57.283Z,7.60
2019-02-22T23:37:23.298Z,7.60
2019-02-22T23:39:49.331Z,7.50
2019-02-22T23:42:15.342Z,7.50
2019-02-22T23:44:41.415Z,7.40
2019-02-22T23:47:07.428Z,7.50
2019-02-22T23:49:33.476Z,7.40
2019-02-22T23:51:59.504Z,7.50
2019-02-22T23:54:25.516Z,7.30
2019-02-22T23:56:51.616Z,7.30
2019-02-22T23:59:17.628Z,7.30
